TAF KMCO
AMD KMCO 280859Z 2809/2912 34003KT P6SM SCT150 BKN250 FM281400 32005KT P6SM SCT110 BKN150 BKN200 FM281800 30006KT P6SM FEW080 BKN120 BKN150 FM290000 32004KT P6SM SCT050 SCT080 OVC100=
METAR KMCO
WC KMCO
WS KMCO
WV KMCO